Portada
METAR-TAF:

METAR-TAF

Aeroports :

Hernando County Airport

Brooksville, Florida, Estats Units d'Amèrica

latitud: 28-28-25N, longitud: 082-27-16W, altitud: 23 m

Observació

L'informe es va fer fa 15 minuts, a les 05:53 UTC
Vent 4 kt del Oest
Temperatura 24°C
Humitat 94%
Pressió 1015 hPa
Visibilitat: 16.1 km
Cel clar

METAR: KBKV 160553Z AUTO 27004KT 10SM CLR 24/23 A2997 RMK AO2 SLP148 T02390228 10272 20239 53001

Hora: 02:08 (06:08 UTC)


TAF: manca

Observacions i pronòstics meteorològics de més de 4000 aeroports (METAR i TAF).

Les estacions disponibles són els punts grocs i vermells al mapa.

Posi el ratolí al punt desitjat per veure el nom de l'estació.

Feu clic per veure les observacions i els pronòstics meteorològics.

Per canviar el mapa: feu clic els botons verds amb una creu de color negre per apropar; al botó verd amb un guió per allunyar la imatge; o en les fletxes verdes per a mapes adjacents.


METAR-TAF: